AirNav   Air Wisconsin Up To $57,000 Bonus
 
 1228 users online  

5IA0 Skiff Medical Center Heliport
Newton, Iowa, USA

GOING TO NEWTON?


FAA INFORMATION EFFECTIVE 02 JANUARY 2020

Location

FAA Identifier: 5IA0
Lat/Long: 41-42-13.2200N 093-03-05.8100W
41-42.220333N 093-03.096833W
41.7036722,-93.0516139
(estimated)
Elevation: 947 ft. / 289 m (estimated)
Variation: 03E (1990)
Time zone: UTC -6 (UTC -5 during Daylight Saving Time)
Zip code: 50208

Heliport Operations

Heliport use: Private use, MEDICAL USE.
Activation date: 02/1993
Control tower: no
ARTCC: MINNEAPOLIS CENTER
FSS: FORT DODGE FLIGHT SERVICE STATION
Attendance: UNATNDD
Wind indicator: yes
Segmented circle: no
Lights: FOR PERIMETER LGTS CALL 641-791-4300.

Heliport Communications

WX AWOS-3 at TNU (2.2 nm SE): 132.275 (641-791-3302)
WX AWOS-3 at GGI (14 nm E): 120.725 (641-236-9720)
WX AWOS-3 at PEA (19 nm S): 118.875 (641-628-3459)

Nearby radio navigation aids

VOR radial/distance  VOR name  Freq  Var
TNUr149/5.5NEWTON VOR/DME112.5003E
JWJr194/25.3ELMWOOD VOR/DME109.4001E
DSMr052/31.2DES MOINES VORTAC117.5007E

 
NDB name  Hdg/Dist  Freq  Var  ID
PELLA343/18.625702EPEA .--. . .-

Heliport Services

Runway Information

Helipad H1

Dimensions: 75 x 75 ft. / 23 x 23 m
Surface: concrete
Runway edge lights: PERI
Latitude: 41-42.220333N
Longitude: 093-03.096833W
Elevation: 947.0 ft.
Traffic pattern: leftleft

Heliport Ownership and Management from official FAA records

Ownership: Privately-owned
Owner: SKIFF MEDICAL CENTER
204 N. 4TH AVE E.
NEWTON, IA 50208
Phone 641-791-4365
Manager: KERRY SOULE
204 N 4TH AVE E
NEWTON, IA 50208
Phone (641) 791-4858
HANSEN LIND MEYER INC.

Additional Remarks

FOR CD CTC CHICAGO ARTCC AT 630-906-8921.

Instrument Procedures

There are no published instrument procedures at 5IA0.

Some nearby airports with instrument procedures:

KTNU - Newton Municipal Airport-Earl Johnson Field (2 nm SE)
KGGI - Grinnell Regional Airport (14 nm E)
KPEA - Pella Municipal Airport (19 nm S)
KIKV - Ankeny Regional Airport (23 nm W)
KOXV - Knoxville Municipal Airport (24 nm S)
 
Loc | Ops | Rwys | IFR | FBO | Links
Com | Nav | Svcs | Stats | Notes
Area around 5IA0 (Skiff Medical Center Heliport)
 
Road maps at: MapQuest Bing Google
 
Aerial photo
No photo
 
Sectional chart

 
Airport distance calculator
Flying to Skiff Medical Center Heliport? Find the distance to fly.

From to 5IA0

Sunrise and sunset
Times for 26-Jan-2020
 Local
(UTC-6)
 Zulu
(UTC)
Morning civil twilight07:0113:01
Sunrise07:3113:31
Sunset17:1923:19
Evening civil twilight17:4923:49

Current date and time
Zulu (UTC)  27-Jan-2020 00:14:06
Local (UTC-6)  26-Jan-2020 18:14:06
 
METAR
KTNU 
3nm SE 
262355Z AUTO 27007KT 3SM BR OVC004 M01/M01 A2993 RMK A01
KGGI 
14nm E 
262355Z AUTO 26007KT 2 1/2SM BR OVC004 M02/M02 A2993 RMK AO2 T10171022 11016 21031
KPEA 
19nm S 
262355Z AUTO 25005KT 7SM OVC006 M01/M02 A2995 RMK AO2 T10081020 11005 21017
TAF
KDSM 
29nm W 
262159Z 2622/2718 23008KT P6SM OVC007 FM270300 28004KT 2SM BR BKN003 FM270700 31004KT 1/2SM FG OVC003 FM271300 VRB03KT 2SM BR OVC006 FM271600 VRB04KT 5SM BR OVC011
NOTAMs
Click for the latest NOTAMs
NOTAMs are issued by the DoD/FAA and will open in a separate window not controlled by AirNav.

 

 
 

Would you like to see your business listed on this page?

 If your business provides an interesting product or service to pilots, flight crews, aircraft, or users of the Skiff Medical Center Heliport, you should consider listing it here.  To start the listing process, click on the button below
 
Add a business
 

Other Pages about Skiff Medical Center Heliport

Update a link
 
Copyright © AirNav, LLC. All rights reserved. Privacy Policy  Contact